sensor_id;sensor_type;location;lat;lon;timestamp;P1;durP1;ratioP1;P2;durP2;ratioP2
47784;SDS011;35233;55.686;37.848;2022-11-02T00:00:28;4.97;;;3.50;;
47784;SDS011;35233;55.686;37.848;2022-11-02T00:02:54;5.45;;;3.58;;
47784;SDS011;35233;55.686;37.848;2022-11-02T00:05:20;6.00;;;3.50;;
47784;SDS011;35233;55.686;37.848;2022-11-02T00:07:49;6.90;;;3.75;;
47784;SDS011;35233;55.686;37.848;2022-11-02T00:10:16;5.43;;;3.35;;
47784;SDS011;35233;55.686;37.848;2022-11-02T00:12:42;5.63;;;3.63;;
47784;SDS011;35233;55.686;37.848;2022-11-02T00:15:09;5.90;;;3.88;;
47784;SDS011;35233;55.686;37.848;2022-11-02T00:17:35;6.10;;;3.67;;
47784;SDS011;35233;55.686;37.848;2022-11-02T00:20:04;7.60;;;3.80;;
47784;SDS011;35233;55.686;37.848;2022-11-02T00:22:30;5.70;;;3.47;;
47784;SDS011;35233;55.686;37.848;2022-11-02T00:24:57;4.18;;;3.20;;
47784;SDS011;35233;55.686;37.848;2022-11-02T00:27:24;8.52;;;3.72;;
47784;SDS011;35233;55.686;37.848;2022-11-02T00:29:51;4.38;;;3.30;;
47784;SDS011;35233;55.686;37.848;2022-11-02T00:32:17;5.25;;;3.50;;
47784;SDS011;35233;55.686;37.848;2022-11-02T00:34:43;6.40;;;3.25;;
47784;SDS011;35233;55.686;37.848;2022-11-02T00:37:08;5.43;;;3.20;;
47784;SDS011;35233;55.686;37.848;2022-11-02T00:39:34;5.55;;;3.40;;
47784;SDS011;35233;55.686;37.848;2022-11-02T00:41:59;5.32;;;3.33;;
47784;SDS011;35233;55.686;37.848;2022-11-02T00:44:25;5.25;;;3.53;;
47784;SDS011;35233;55.686;37.848;2022-11-02T00:46:50;7.75;;;3.22;;
47784;SDS011;35233;55.686;37.848;2022-11-02T00:49:16;5.65;;;3.72;;
47784;SDS011;35233;55.686;37.848;2022-11-02T00:51:41;5.35;;;3.50;;
47784;SDS011;35233;55.686;37.848;2022-11-02T00:54:08;5.22;;;3.58;;
47784;SDS011;35233;55.686;37.848;2022-11-02T00:56:33;5.30;;;3.53;;
47784;SDS011;35233;55.686;37.848;2022-11-02T00:58:59;4.75;;;3.40;;
47784;SDS011;35233;55.686;37.848;2022-11-02T01:01:24;5.05;;;3.50;;
47784;SDS011;35233;55.686;37.848;2022-11-02T01:03:50;7.43;;;3.58;;
47784;SDS011;35233;55.686;37.848;2022-11-02T01:06:15;5.35;;;3.00;;
47784;SDS011;35233;55.686;37.848;2022-11-02T01:08:41;5.57;;;3.40;;
47784;SDS011;35233;55.686;37.848;2022-11-02T01:11:16;5.47;;;3.35;;
47784;SDS011;35233;55.686;37.848;2022-11-02T01:13:44;5.22;;;3.20;;
47784;SDS011;35233;55.686;37.848;2022-11-02T01:16:10;5.65;;;3.85;;
47784;SDS011;35233;55.686;37.848;2022-11-02T01:18:37;5.22;;;3.38;;
47784;SDS011;35233;55.686;37.848;2022-11-02T01:21:03;6.60;;;3.63;;
47784;SDS011;35233;55.686;37.848;2022-11-02T01:23:33;5.15;;;3.55;;
47784;SDS011;35233;55.686;37.848;2022-11-02T01:26:03;4.82;;;3.40;;
47784;SDS011;35233;55.686;37.848;2022-11-02T01:28:30;6.03;;;3.60;;
47784;SDS011;35233;55.686;37.848;2022-11-02T01:30:56;5.45;;;3.63;;
47784;SDS011;35233;55.686;37.848;2022-11-02T01:33:23;6.55;;;3.92;;
47784;SDS011;35233;55.686;37.848;2022-11-02T01:35:49;4.40;;;3.20;;
47784;SDS011;35233;55.686;37.848;2022-11-02T01:38:14;5.85;;;3.97;;
47784;SDS011;35233;55.686;37.848;2022-11-02T01:40:40;7.00;;;4.25;;
47784;SDS011;35233;55.686;37.848;2022-11-02T01:43:22;5.95;;;3.67;;
47784;SDS011;35233;55.686;37.848;2022-11-02T01:46:33;8.50;;;4.18;;
47784;SDS011;35233;55.686;37.848;2022-11-02T01:48:41;7.05;;;4.25;;
47784;SDS011;35233;55.686;37.848;2022-11-02T01:51:21;7.88;;;4.30;;
47784;SDS011;35233;55.686;37.848;2022-11-02T01:53:51;6.45;;;4.18;;
47784;SDS011;35233;55.686;37.848;2022-11-02T01:56:19;6.60;;;4.47;;
47784;SDS011;35233;55.686;37.848;2022-11-02T01:58:50;7.13;;;4.60;;
47784;SDS011;35233;55.686;37.848;2022-11-02T02:01:19;6.93;;;4.20;;
47784;SDS011;35233;55.686;37.848;2022-11-02T02:03:45;7.30;;;4.47;;
47784;SDS011;35233;55.686;37.848;2022-11-02T02:06:13;7.13;;;4.20;;
47784;SDS011;35233;55.686;37.848;2022-11-02T02:08:44;5.95;;;4.22;;
47784;SDS011;35233;55.686;37.848;2022-11-02T02:11:27;6.20;;;4.20;;
47784;SDS011;35233;55.686;37.848;2022-11-02T02:14:00;8.82;;;4.65;;
47784;SDS011;35233;55.686;37.848;2022-11-02T02:19:46;7.25;;;4.38;;
47784;SDS011;35233;55.686;37.848;2022-11-02T02:30:14;7.93;;;4.63;;
47784;SDS011;35233;55.686;37.848;2022-11-02T02:35:27;5.53;;;3.95;;
47784;SDS011;35233;55.686;37.848;2022-11-02T02:37:59;7.32;;;4.60;;
47784;SDS011;35233;55.686;37.848;2022-11-02T02:43:36;8.13;;;4.82;;
47784;SDS011;35233;55.686;37.848;2022-11-02T02:46:07;6.72;;;4.38;;
47784;SDS011;35233;55.686;37.848;2022-11-02T02:48:54;10.70;;;4.70;;
47784;SDS011;35233;55.686;37.848;2022-11-02T02:51:25;9.27;;;4.85;;
47784;SDS011;35233;55.686;37.848;2022-11-02T02:53:57;8.45;;;4.80;;
47784;SDS011;35233;55.686;37.848;2022-11-02T02:56:23;8.45;;;5.20;;
47784;SDS011;35233;55.686;37.848;2022-11-02T02:58:58;8.68;;;4.80;;
47784;SDS011;35233;55.686;37.848;2022-11-02T03:01:26;7.00;;;4.78;;
47784;SDS011;35233;55.686;37.848;2022-11-02T03:03:52;9.57;;;5.43;;
47784;SDS011;35233;55.686;37.848;2022-11-02T03:09:16;11.63;;;5.57;;
47784;SDS011;35233;55.686;37.848;2022-11-02T03:11:59;7.30;;;5.25;;
47784;SDS011;35233;55.686;37.848;2022-11-02T03:14:37;9.27;;;5.53;;
47784;SDS011;35233;55.686;37.848;2022-11-02T03:17:55;7.05;;;5.07;;
47784;SDS011;35233;55.686;37.848;2022-11-02T03:29:10;7.45;;;5.20;;
47784;SDS011;35233;55.686;37.848;2022-11-02T03:31:42;11.75;;;5.22;;
47784;SDS011;35233;55.686;37.848;2022-11-02T03:34:26;8.32;;;4.55;;
47784;SDS011;35233;55.686;37.848;2022-11-02T03:37:02;8.05;;;5.10;;
47784;SDS011;35233;55.686;37.848;2022-11-02T03:39:45;7.25;;;4.68;;
47784;SDS011;35233;55.686;37.848;2022-11-02T03:42:15;8.05;;;4.28;;
47784;SDS011;35233;55.686;37.848;2022-11-02T03:44:44;8.65;;;4.47;;
47784;SDS011;35233;55.686;37.848;2022-11-02T03:47:14;7.07;;;4.13;;
47784;SDS011;35233;55.686;37.848;2022-11-02T03:49:42;5.70;;;4.00;;
47784;SDS011;35233;55.686;37.848;2022-11-02T03:52:12;7.30;;;4.40;;
47784;SDS011;35233;55.686;37.848;2022-11-02T03:54:50;7.90;;;4.30;;
47784;SDS011;35233;55.686;37.848;2022-11-02T03:57:35;7.00;;;3.95;;
47784;SDS011;35233;55.686;37.848;2022-11-02T04:00:14;8.68;;;4.38;;
47784;SDS011;35233;55.686;37.848;2022-11-02T04:02:44;7.03;;;3.88;;
47784;SDS011;35233;55.686;37.848;2022-11-02T04:05:11;5.53;;;4.00;;
47784;SDS011;35233;55.686;37.848;2022-11-02T04:07:37;6.75;;;4.07;;
47784;SDS011;35233;55.686;37.848;2022-11-02T04:10:23;6.40;;;3.72;;
47784;SDS011;35233;55.686;37.848;2022-11-02T04:12:49;7.72;;;4.40;;
47784;SDS011;35233;55.686;37.848;2022-11-02T04:15:33;7.43;;;3.80;;
47784;SDS011;35233;55.686;37.848;2022-11-02T04:17:58;6.78;;;4.00;;
47784;SDS011;35233;55.686;37.848;2022-11-02T04:20:42;7.90;;;3.85;;
47784;SDS011;35233;55.686;37.848;2022-11-02T04:23:07;7.88;;;4.03;;
47784;SDS011;35233;55.686;37.848;2022-11-02T04:25:52;5.03;;;3.45;;
47784;SDS011;35233;55.686;37.848;2022-11-02T04:28:18;7.55;;;3.50;;
47784;SDS011;35233;55.686;37.848;2022-11-02T04:30:44;7.10;;;4.22;;
47784;SDS011;35233;55.686;37.848;2022-11-02T04:33:10;7.03;;;3.78;;
47784;SDS011;35233;55.686;37.848;2022-11-02T04:35:54;5.45;;;4.10;;
47784;SDS011;35233;55.686;37.848;2022-11-02T04:38:19;7.07;;;4.15;;
47784;SDS011;35233;55.686;37.848;2022-11-02T04:41:03;6.43;;;3.65;;
47784;SDS011;35233;55.686;37.848;2022-11-02T04:43:48;6.25;;;3.83;;
47784;SDS011;35233;55.686;37.848;2022-11-02T04:46:13;7.63;;;4.50;;
47784;SDS011;35233;55.686;37.848;2022-11-02T04:48:39;6.82;;;4.22;;
47784;SDS011;35233;55.686;37.848;2022-11-02T04:51:04;6.45;;;4.35;;
47784;SDS011;35233;55.686;37.848;2022-11-02T04:53:30;9.40;;;4.80;;
47784;SDS011;35233;55.686;37.848;2022-11-02T04:55:56;8.82;;;4.93;;
47784;SDS011;35233;55.686;37.848;2022-11-02T04:58:21;7.05;;;4.80;;
47784;SDS011;35233;55.686;37.848;2022-11-02T05:00:47;7.40;;;4.82;;
47784;SDS011;35233;55.686;37.848;2022-11-02T05:03:12;7.65;;;5.25;;
47784;SDS011;35233;55.686;37.848;2022-11-02T05:05:37;7.15;;;4.80;;
47784;SDS011;35233;55.686;37.848;2022-11-02T05:08:03;9.75;;;5.40;;
47784;SDS011;35233;55.686;37.848;2022-11-02T05:10:29;8.73;;;5.22;;
47784;SDS011;35233;55.686;37.848;2022-11-02T05:12:58;8.30;;;5.20;;
47784;SDS011;35233;55.686;37.848;2022-11-02T05:15:24;9.02;;;5.47;;
47784;SDS011;35233;55.686;37.848;2022-11-02T05:17:50;9.30;;;4.75;;
47784;SDS011;35233;55.686;37.848;2022-11-02T05:20:15;7.85;;;5.30;;
47784;SDS011;35233;55.686;37.848;2022-11-02T05:22:41;9.95;;;6.07;;
47784;SDS011;35233;55.686;37.848;2022-11-02T05:25:07;10.70;;;6.20;;
47784;SDS011;35233;55.686;37.848;2022-11-02T05:27:36;11.55;;;6.20;;
47784;SDS011;35233;55.686;37.848;2022-11-02T05:30:03;10.45;;;7.05;;
47784;SDS011;35233;55.686;37.848;2022-11-02T05:32:30;9.48;;;6.20;;
47784;SDS011;35233;55.686;37.848;2022-11-02T05:34:56;10.25;;;6.22;;
47784;SDS011;35233;55.686;37.848;2022-11-02T05:37:21;9.20;;;6.57;;
47784;SDS011;35233;55.686;37.848;2022-11-02T05:39:47;9.82;;;5.90;;
47784;SDS011;35233;55.686;37.848;2022-11-02T05:42:13;9.82;;;5.75;;
47784;SDS011;35233;55.686;37.848;2022-11-02T05:44:38;8.82;;;6.05;;
47784;SDS011;35233;55.686;37.848;2022-11-02T05:47:04;9.75;;;6.03;;
47784;SDS011;35233;55.686;37.848;2022-11-02T05:49:29;9.68;;;5.97;;
47784;SDS011;35233;55.686;37.848;2022-11-02T05:51:55;8.93;;;5.70;;
47784;SDS011;35233;55.686;37.848;2022-11-02T05:54:20;10.35;;;6.18;;
47784;SDS011;35233;55.686;37.848;2022-11-02T05:56:46;8.02;;;5.63;;
47784;SDS011;35233;55.686;37.848;2022-11-02T05:59:11;9.60;;;6.05;;
47784;SDS011;35233;55.686;37.848;2022-11-02T06:01:37;10.27;;;6.30;;
47784;SDS011;35233;55.686;37.848;2022-11-02T06:04:03;9.65;;;6.18;;
47784;SDS011;35233;55.686;37.848;2022-11-02T06:06:29;11.15;;;7.10;;
47784;SDS011;35233;55.686;37.848;2022-11-02T06:08:54;12.40;;;7.30;;
47784;SDS011;35233;55.686;37.848;2022-11-02T06:11:20;10.55;;;6.90;;
47784;SDS011;35233;55.686;37.848;2022-11-02T06:13:47;11.18;;;7.88;;
47784;SDS011;35233;55.686;37.848;2022-11-02T06:16:14;13.38;;;8.43;;
47784;SDS011;35233;55.686;37.848;2022-11-02T06:18:41;15.15;;;10.32;;
47784;SDS011;35233;55.686;37.848;2022-11-02T06:21:07;18.60;;;12.00;;
47784;SDS011;35233;55.686;37.848;2022-11-02T06:23:33;19.98;;;12.77;;
47784;SDS011;35233;55.686;37.848;2022-11-02T06:25:59;19.85;;;13.38;;
47784;SDS011;35233;55.686;37.848;2022-11-02T06:28:26;19.75;;;13.73;;
47784;SDS011;35233;55.686;37.848;2022-11-02T06:30:52;19.67;;;13.73;;
47784;SDS011;35233;55.686;37.848;2022-11-02T06:33:18;18.40;;;12.73;;
47784;SDS011;35233;55.686;37.848;2022-11-02T06:35:47;20.20;;;13.80;;
47784;SDS011;35233;55.686;37.848;2022-11-02T06:38:15;21.27;;;13.10;;
47784;SDS011;35233;55.686;37.848;2022-11-02T06:40:41;17.30;;;12.00;;
47784;SDS011;35233;55.686;37.848;2022-11-02T06:43:06;18.42;;;12.98;;
47784;SDS011;35233;55.686;37.848;2022-11-02T06:45:32;19.08;;;13.35;;
47784;SDS011;35233;55.686;37.848;2022-11-02T06:47:58;16.98;;;11.65;;
47784;SDS011;35233;55.686;37.848;2022-11-02T06:50:23;18.38;;;12.82;;
47784;SDS011;35233;55.686;37.848;2022-11-02T06:52:49;18.13;;;12.82;;
47784;SDS011;35233;55.686;37.848;2022-11-02T06:55:16;19.75;;;12.82;;
47784;SDS011;35233;55.686;37.848;2022-11-02T06:57:43;16.55;;;12.20;;
47784;SDS011;35233;55.686;37.848;2022-11-02T07:00:13;17.48;;;12.15;;
47784;SDS011;35233;55.686;37.848;2022-11-02T07:02:42;19.23;;;12.95;;
47784;SDS011;35233;55.686;37.848;2022-11-02T07:05:08;16.75;;;12.13;;
47784;SDS011;35233;55.686;37.848;2022-11-02T07:07:34;18.42;;;12.10;;
47784;SDS011;35233;55.686;37.848;2022-11-02T07:09:59;17.83;;;12.10;;
47784;SDS011;35233;55.686;37.848;2022-11-02T07:12:24;17.40;;;12.20;;
47784;SDS011;35233;55.686;37.848;2022-11-02T07:14:50;18.27;;;12.38;;
47784;SDS011;35233;55.686;37.848;2022-11-02T07:17:15;16.55;;;12.32;;
47784;SDS011;35233;55.686;37.848;2022-11-02T07:19:41;18.02;;;12.15;;
47784;SDS011;35233;55.686;37.848;2022-11-02T07:22:07;17.05;;;12.20;;
47784;SDS011;35233;55.686;37.848;2022-11-02T07:24:33;16.25;;;11.20;;
47784;SDS011;35233;55.686;37.848;2022-11-02T07:26:58;16.10;;;11.48;;
47784;SDS011;35233;55.686;37.848;2022-11-02T07:29:24;18.23;;;12.10;;
47784;SDS011;35233;55.686;37.848;2022-11-02T07:31:49;17.95;;;11.25;;
47784;SDS011;35233;55.686;37.848;2022-11-02T07:34:15;16.52;;;11.32;;
47784;SDS011;35233;55.686;37.848;2022-11-02T07:36:40;19.10;;;13.20;;
47784;SDS011;35233;55.686;37.848;2022-11-02T07:39:06;16.48;;;11.27;;
47784;SDS011;35233;55.686;37.848;2022-11-02T07:41:32;16.17;;;12.00;;
47784;SDS011;35233;55.686;37.848;2022-11-02T07:43:58;15.27;;;10.85;;
47784;SDS011;35233;55.686;37.848;2022-11-02T07:46:23;16.92;;;11.52;;
47784;SDS011;35233;55.686;37.848;2022-11-02T07:48:49;16.13;;;11.57;;
47784;SDS011;35233;55.686;37.848;2022-11-02T07:51:15;16.48;;;10.48;;
47784;SDS011;35233;55.686;37.848;2022-11-02T07:53:40;14.65;;;10.40;;
47784;SDS011;35233;55.686;37.848;2022-11-02T07:56:06;14.70;;;10.55;;
47784;SDS011;35233;55.686;37.848;2022-11-02T07:58:32;17.90;;;11.18;;
47784;SDS011;35233;55.686;37.848;2022-11-02T08:00:57;15.70;;;10.73;;
47784;SDS011;35233;55.686;37.848;2022-11-02T08:03:24;16.85;;;11.20;;
47784;SDS011;35233;55.686;37.848;2022-11-02T08:05:50;16.80;;;10.68;;
47784;SDS011;35233;55.686;37.848;2022-11-02T08:08:17;15.73;;;10.40;;
47784;SDS011;35233;55.686;37.848;2022-11-02T08:10:45;13.98;;;9.82;;
47784;SDS011;35233;55.686;37.848;2022-11-02T08:13:13;14.73;;;10.10;;
47784;SDS011;35233;55.686;37.848;2022-11-02T08:15:40;15.27;;;10.35;;
47784;SDS011;35233;55.686;37.848;2022-11-02T08:18:07;14.60;;;10.38;;
47784;SDS011;35233;55.686;37.848;2022-11-02T08:20:36;16.15;;;10.65;;
47784;SDS011;35233;55.686;37.848;2022-11-02T08:23:02;15.50;;;10.50;;
47784;SDS011;35233;55.686;37.848;2022-11-02T08:25:29;14.85;;;10.75;;
47784;SDS011;35233;55.686;37.848;2022-11-02T08:27:56;15.60;;;10.90;;
47784;SDS011;35233;55.686;37.848;2022-11-02T08:30:23;16.13;;;11.02;;
47784;SDS011;35233;55.686;37.848;2022-11-02T08:32:49;14.25;;;10.55;;
47784;SDS011;35233;55.686;37.848;2022-11-02T08:35:14;14.80;;;10.23;;
47784;SDS011;35233;55.686;37.848;2022-11-02T08:37:40;17.38;;;11.05;;
47784;SDS011;35233;55.686;37.848;2022-11-02T08:40:05;14.93;;;10.77;;
47784;SDS011;35233;55.686;37.848;2022-11-02T08:42:32;17.77;;;11.20;;
47784;SDS011;35233;55.686;37.848;2022-11-02T08:44:57;15.10;;;10.73;;
47784;SDS011;35233;55.686;37.848;2022-11-02T08:47:23;15.65;;;11.30;;
47784;SDS011;35233;55.686;37.848;2022-11-02T08:49:48;17.17;;;11.13;;
47784;SDS011;35233;55.686;37.848;2022-11-02T08:52:16;16.45;;;10.70;;
47784;SDS011;35233;55.686;37.848;2022-11-02T08:54:42;17.70;;;10.95;;
47784;SDS011;35233;55.686;37.848;2022-11-02T08:57:08;15.65;;;11.27;;
47784;SDS011;35233;55.686;37.848;2022-11-02T08:59:33;16.05;;;11.05;;
47784;SDS011;35233;55.686;37.848;2022-11-02T09:01:59;15.82;;;11.05;;
47784;SDS011;35233;55.686;37.848;2022-11-02T09:04:24;18.02;;;11.32;;
47784;SDS011;35233;55.686;37.848;2022-11-02T09:06:50;15.27;;;11.05;;
47784;SDS011;35233;55.686;37.848;2022-11-02T09:09:15;16.63;;;11.07;;
47784;SDS011;35233;55.686;37.848;2022-11-02T09:11:41;16.02;;;11.25;;
47784;SDS011;35233;55.686;37.848;2022-11-02T09:14:06;14.85;;;10.48;;
47784;SDS011;35233;55.686;37.848;2022-11-02T09:16:32;14.45;;;10.07;;
47784;SDS011;35233;55.686;37.848;2022-11-02T09:18:58;14.18;;;10.52;;
47784;SDS011;35233;55.686;37.848;2022-11-02T09:21:24;16.75;;;11.02;;
47784;SDS011;35233;55.686;37.848;2022-11-02T09:23:49;14.32;;;10.25;;
47784;SDS011;35233;55.686;37.848;2022-11-02T09:26:15;15.80;;;10.48;;
47784;SDS011;35233;55.686;37.848;2022-11-02T09:28:41;15.05;;;10.30;;
47784;SDS011;35233;55.686;37.848;2022-11-02T09:31:06;14.00;;;9.65;;
47784;SDS011;35233;55.686;37.848;2022-11-02T09:33:32;12.90;;;9.73;;
47784;SDS011;35233;55.686;37.848;2022-11-02T09:36:02;14.80;;;9.95;;
47784;SDS011;35233;55.686;37.848;2022-11-02T09:38:29;12.05;;;9.88;;
47784;SDS011;35233;55.686;37.848;2022-11-02T09:46:08;14.13;;;9.65;;
47784;SDS011;35233;55.686;37.848;2022-11-02T09:51:19;12.82;;;8.65;;
47784;SDS011;35233;55.686;37.848;2022-11-02T09:53:55;13.98;;;8.63;;
47784;SDS011;35233;55.686;37.848;2022-11-02T09:56:29;12.48;;;8.48;;
47784;SDS011;35233;55.686;37.848;2022-11-02T09:59:01;12.95;;;8.90;;
47784;SDS011;35233;55.686;37.848;2022-11-02T10:01:31;12.05;;;7.88;;
47784;SDS011;35233;55.686;37.848;2022-11-02T10:04:02;13.65;;;8.07;;
47784;SDS011;35233;55.686;37.848;2022-11-02T10:07:08;12.45;;;7.90;;
47784;SDS011;35233;55.686;37.848;2022-11-02T10:12:12;12.77;;;8.50;;
47784;SDS011;35233;55.686;37.848;2022-11-02T10:14:51;11.85;;;8.65;;
47784;SDS011;35233;55.686;37.848;2022-11-02T10:17:21;12.63;;;8.73;;
47784;SDS011;35233;55.686;37.848;2022-11-02T10:19:57;13.65;;;8.88;;
47784;SDS011;35233;55.686;37.848;2022-11-02T10:22:27;10.85;;;7.70;;
47784;SDS011;35233;55.686;37.848;2022-11-02T10:24:59;9.85;;;7.53;;
47784;SDS011;35233;55.686;37.848;2022-11-02T10:27:28;11.25;;;7.55;;
47784;SDS011;35233;55.686;37.848;2022-11-02T10:30:02;13.32;;;8.40;;
47784;SDS011;35233;55.686;37.848;2022-11-02T10:32:40;11.20;;;7.55;;
47784;SDS011;35233;55.686;37.848;2022-11-02T10:35:15;11.60;;;7.75;;
47784;SDS011;35233;55.686;37.848;2022-11-02T10:37:47;12.35;;;8.38;;
47784;SDS011;35233;55.686;37.848;2022-11-02T10:45:47;11.52;;;8.13;;
47784;SDS011;35233;55.686;37.848;2022-11-02T10:48:26;10.95;;;7.90;;
47784;SDS011;35233;55.686;37.848;2022-11-02T10:51:08;12.25;;;7.20;;
47784;SDS011;35233;55.686;37.848;2022-11-02T10:53:41;11.95;;;8.07;;
47784;SDS011;35233;55.686;37.848;2022-11-02T10:58:39;10.27;;;7.65;;
47784;SDS011;35233;55.686;37.848;2022-11-02T11:01:10;11.90;;;7.88;;
47784;SDS011;35233;55.686;37.848;2022-11-02T11:03:51;9.93;;;7.40;;
47784;SDS011;35233;55.686;37.848;2022-11-02T11:06:17;12.60;;;7.57;;
47784;SDS011;35233;55.686;37.848;2022-11-02T11:08:43;9.27;;;7.10;;
47784;SDS011;35233;55.686;37.848;2022-11-02T11:13:55;9.50;;;7.00;;
47784;SDS011;35233;55.686;37.848;2022-11-02T11:16:57;9.68;;;7.20;;
47784;SDS011;35233;55.686;37.848;2022-11-02T11:21:58;10.07;;;7.25;;
47784;SDS011;35233;55.686;37.848;2022-11-02T11:24:26;9.73;;;7.70;;
47784;SDS011;35233;55.686;37.848;2022-11-02T11:27:00;10.10;;;7.60;;
47784;SDS011;35233;55.686;37.848;2022-11-02T11:29:34;11.60;;;7.82;;
47784;SDS011;35233;55.686;37.848;2022-11-02T11:32:02;10.07;;;7.47;;
47784;SDS011;35233;55.686;37.848;2022-11-02T11:34:29;10.90;;;7.32;;
47784;SDS011;35233;55.686;37.848;2022-11-02T11:37:09;11.77;;;7.72;;
47784;SDS011;35233;55.686;37.848;2022-11-02T11:39:37;13.13;;;8.35;;
47784;SDS011;35233;55.686;37.848;2022-11-02T11:42:06;11.68;;;7.80;;
47784;SDS011;35233;55.686;37.848;2022-11-02T11:44:51;10.75;;;7.68;;
47784;SDS011;35233;55.686;37.848;2022-11-02T11:47:39;9.65;;;6.80;;
47784;SDS011;35233;55.686;37.848;2022-11-02T11:50:15;11.70;;;7.63;;
47784;SDS011;35233;55.686;37.848;2022-11-02T11:52:42;11.32;;;7.93;;
47784;SDS011;35233;55.686;37.848;2022-11-02T11:55:24;11.85;;;7.57;;
47784;SDS011;35233;55.686;37.848;2022-11-02T11:58:04;11.90;;;7.88;;
47784;SDS011;35233;55.686;37.848;2022-11-02T12:00:30;11.10;;;8.10;;
47784;SDS011;35233;55.686;37.848;2022-11-02T12:03:06;11.40;;;7.72;;
47784;SDS011;35233;55.686;37.848;2022-11-02T12:08:21;9.50;;;7.00;;
47784;SDS011;35233;55.686;37.848;2022-11-02T12:27:17;11.27;;;7.25;;
47784;SDS011;35233;55.686;37.848;2022-11-02T12:30:17;9.73;;;7.30;;
47784;SDS011;35233;55.686;37.848;2022-11-02T12:32:47;11.65;;;7.93;;
47784;SDS011;35233;55.686;37.848;2022-11-02T12:47:07;11.93;;;8.20;;
47784;SDS011;35233;55.686;37.848;2022-11-02T12:55:43;11.35;;;8.25;;
47784;SDS011;35233;55.686;37.848;2022-11-02T12:58:26;12.00;;;8.32;;
47784;SDS011;35233;55.686;37.848;2022-11-02T13:00:56;12.27;;;8.65;;
47784;SDS011;35233;55.686;37.848;2022-11-02T13:06:04;11.98;;;7.95;;
47784;SDS011;35233;55.686;37.848;2022-11-02T13:08:50;12.27;;;7.78;;
47784;SDS011;35233;55.686;37.848;2022-11-02T13:11:25;11.45;;;8.27;;
47784;SDS011;35233;55.686;37.848;2022-11-02T13:13:58;12.52;;;8.15;;
47784;SDS011;35233;55.686;37.848;2022-11-02T13:19:21;11.93;;;7.65;;
47784;SDS011;35233;55.686;37.848;2022-11-02T13:21:52;10.10;;;7.05;;
47784;SDS011;35233;55.686;37.848;2022-11-02T13:24:33;11.45;;;7.95;;
47784;SDS011;35233;55.686;37.848;2022-11-02T13:27:05;11.02;;;7.45;;
47784;SDS011;35233;55.686;37.848;2022-11-02T13:29:41;10.13;;;7.57;;
47784;SDS011;35233;55.686;37.848;2022-11-02T13:32:20;10.73;;;7.65;;
47784;SDS011;35233;55.686;37.848;2022-11-02T13:34:52;13.40;;;8.35;;
47784;SDS011;35233;55.686;37.848;2022-11-02T13:37:21;12.50;;;8.73;;
47784;SDS011;35233;55.686;37.848;2022-11-02T13:39:53;12.57;;;8.15;;
47784;SDS011;35233;55.686;37.848;2022-11-02T13:42:24;13.30;;;8.02;;
47784;SDS011;35233;55.686;37.848;2022-11-02T13:50:32;10.95;;;7.22;;
47784;SDS011;35233;55.686;37.848;2022-11-02T13:53:04;10.52;;;8.27;;
47784;SDS011;35233;55.686;37.848;2022-11-02T14:01:03;9.88;;;7.18;;
47784;SDS011;35233;55.686;37.848;2022-11-02T14:06:18;11.25;;;7.53;;
47784;SDS011;35233;55.686;37.848;2022-11-02T14:08:48;11.98;;;8.48;;
47784;SDS011;35233;55.686;37.848;2022-11-02T14:21:44;14.32;;;7.75;;
47784;SDS011;35233;55.686;37.848;2022-11-02T14:25:03;11.15;;;7.72;;
47784;SDS011;35233;55.686;37.848;2022-11-02T14:32:03;12.82;;;8.40;;
47784;SDS011;35233;55.686;37.848;2022-11-02T14:40:34;14.05;;;8.90;;
47784;SDS011;35233;55.686;37.848;2022-11-02T14:43:20;13.95;;;8.07;;
47784;SDS011;35233;55.686;37.848;2022-11-02T14:48:41;11.82;;;8.02;;
47784;SDS011;35233;55.686;37.848;2022-11-02T14:51:16;14.02;;;9.48;;
47784;SDS011;35233;55.686;37.848;2022-11-02T14:53:45;14.90;;;8.90;;
47784;SDS011;35233;55.686;37.848;2022-11-02T14:56:13;13.50;;;9.30;;
47784;SDS011;35233;55.686;37.848;2022-11-02T14:58:39;16.58;;;10.27;;
47784;SDS011;35233;55.686;37.848;2022-11-02T15:01:15;16.45;;;9.68;;
47784;SDS011;35233;55.686;37.848;2022-11-02T15:03:42;13.93;;;9.90;;
47784;SDS011;35233;55.686;37.848;2022-11-02T15:08:56;18.05;;;9.48;;
47784;SDS011;35233;55.686;37.848;2022-11-02T15:25:28;16.20;;;10.68;;
47784;SDS011;35233;55.686;37.848;2022-11-02T15:28:20;15.90;;;11.05;;
47784;SDS011;35233;55.686;37.848;2022-11-02T15:30:50;16.65;;;10.43;;
47784;SDS011;35233;55.686;37.848;2022-11-02T15:36:02;15.93;;;10.75;;
47784;SDS011;35233;55.686;37.848;2022-11-02T15:38:31;19.00;;;11.35;;
47784;SDS011;35233;55.686;37.848;2022-11-02T15:43:45;15.65;;;10.68;;
47784;SDS011;35233;55.686;37.848;2022-11-02T15:49:05;16.00;;;10.68;;
47784;SDS011;35233;55.686;37.848;2022-11-02T15:55:13;19.15;;;10.98;;
47784;SDS011;35233;55.686;37.848;2022-11-02T15:58:32;17.02;;;11.40;;
47784;SDS011;35233;55.686;37.848;2022-11-02T16:00:36;16.55;;;11.23;;
47784;SDS011;35233;55.686;37.848;2022-11-02T16:03:02;15.35;;;10.30;;
47784;SDS011;35233;55.686;37.848;2022-11-02T16:05:30;15.30;;;10.48;;
47784;SDS011;35233;55.686;37.848;2022-11-02T16:07:58;15.13;;;10.02;;
47784;SDS011;35233;55.686;37.848;2022-11-02T16:15:34;14.30;;;10.25;;
47784;SDS011;35233;55.686;37.848;2022-11-02T16:17:59;14.10;;;9.23;;
47784;SDS011;35233;55.686;37.848;2022-11-02T16:23:01;17.55;;;9.85;;
47784;SDS011;35233;55.686;37.848;2022-11-02T16:28:46;14.07;;;9.25;;
47784;SDS011;35233;55.686;37.848;2022-11-02T16:33:32;12.30;;;8.85;;
47784;SDS011;35233;55.686;37.848;2022-11-02T16:35:59;13.50;;;8.95;;
47784;SDS011;35233;55.686;37.848;2022-11-02T16:38:25;12.68;;;8.90;;
47784;SDS011;35233;55.686;37.848;2022-11-02T16:40:52;15.20;;;9.38;;
47784;SDS011;35233;55.686;37.848;2022-11-02T16:43:18;11.35;;;8.32;;
47784;SDS011;35233;55.686;37.848;2022-11-02T16:45:47;13.75;;;8.75;;
47784;SDS011;35233;55.686;37.848;2022-11-02T16:48:19;13.98;;;8.38;;
47784;SDS011;35233;55.686;37.848;2022-11-02T16:51:01;12.40;;;8.63;;
47784;SDS011;35233;55.686;37.848;2022-11-02T16:53:36;12.23;;;7.95;;
47784;SDS011;35233;55.686;37.848;2022-11-02T17:01:24;11.70;;;8.10;;
47784;SDS011;35233;55.686;37.848;2022-11-02T17:03:51;11.65;;;7.60;;
47784;SDS011;35233;55.686;37.848;2022-11-02T17:06:17;11.15;;;7.65;;
47784;SDS011;35233;55.686;37.848;2022-11-02T17:08:43;11.60;;;7.47;;
47784;SDS011;35233;55.686;37.848;2022-11-02T17:11:16;11.55;;;8.18;;
47784;SDS011;35233;55.686;37.848;2022-11-02T17:13:50;11.65;;;8.07;;
47784;SDS011;35233;55.686;37.848;2022-11-02T17:16:17;12.65;;;8.15;;
47784;SDS011;35233;55.686;37.848;2022-11-02T17:18:43;10.57;;;7.80;;
47784;SDS011;35233;55.686;37.848;2022-11-02T17:23:38;10.60;;;7.63;;
47784;SDS011;35233;55.686;37.848;2022-11-02T17:28:52;12.02;;;8.50;;
47784;SDS011;35233;55.686;37.848;2022-11-02T17:31:28;12.70;;;7.72;;
47784;SDS011;35233;55.686;37.848;2022-11-02T17:33:58;12.00;;;8.40;;
47784;SDS011;35233;55.686;37.848;2022-11-02T17:36:26;15.55;;;8.93;;
47784;SDS011;35233;55.686;37.848;2022-11-02T17:38:52;12.95;;;8.80;;
47784;SDS011;35233;55.686;37.848;2022-11-02T17:41:19;12.52;;;8.43;;
47784;SDS011;35233;55.686;37.848;2022-11-02T17:44:04;12.73;;;7.72;;